createdAt,value
2023-04-27T00:00:12.892Z,1.87
2023-04-27T00:02:59.394Z,1.80
2023-04-27T00:05:46.465Z,1.73
2023-04-27T00:08:33.061Z,1.70
2023-04-27T00:11:19.732Z,1.80
2023-04-27T00:14:07.383Z,1.63
2023-04-27T00:16:53.953Z,1.70
2023-04-27T00:19:41.908Z,1.80
2023-04-27T00:22:28.294Z,1.90
2023-04-27T00:25:14.665Z,1.70
2023-04-27T00:28:01.269Z,1.90
2023-04-27T00:30:48.978Z,1.57
2023-04-27T00:33:35.452Z,1.93
2023-04-27T00:36:22.190Z,2.00
2023-04-27T00:39:09.208Z,1.80
2023-04-27T00:41:55.288Z,1.70
2023-04-27T00:44:41.913Z,1.90
2023-04-27T00:47:29.531Z,2.27
2023-04-27T00:50:16.357Z,2.00
2023-04-27T00:53:03.519Z,2.40
2023-04-27T00:55:50.275Z,2.00
2023-04-27T00:58:36.711Z,2.10
2023-04-27T01:01:23.835Z,1.93
2023-04-27T01:04:12.122Z,2.13
2023-04-27T01:06:58.755Z,2.30
2023-04-27T01:09:46.760Z,1.87
2023-04-27T01:12:33.169Z,1.90
2023-04-27T01:15:19.836Z,2.50
2023-04-27T01:18:06.757Z,2.10
2023-04-27T01:20:54.804Z,2.13
2023-04-27T01:23:42.603Z,2.10
2023-04-27T01:26:28.847Z,2.43
2023-04-27T01:29:15.540Z,2.00
2023-04-27T01:32:01.900Z,3.43
2023-04-27T01:34:48.400Z,3.40
2023-04-27T01:37:35.030Z,2.10
2023-04-27T01:40:23.100Z,2.33
2023-04-27T01:43:09.513Z,1.90
2023-04-27T01:45:55.865Z,2.30
2023-04-27T01:48:42.826Z,2.50
2023-04-27T01:51:29.042Z,1.90
2023-04-27T01:54:15.434Z,3.10
2023-04-27T01:57:03.439Z,2.20
2023-04-27T01:59:49.928Z,2.20
2023-04-27T02:02:36.805Z,2.40
2023-04-27T02:05:23.088Z,2.30
2023-04-27T02:08:09.692Z,2.23
2023-04-27T02:10:56.082Z,2.33
2023-04-27T02:13:43.881Z,2.07
2023-04-27T02:16:30.233Z,2.33
2023-04-27T02:19:16.875Z,2.50
2023-04-27T02:22:03.588Z,2.07
2023-04-27T02:24:50.293Z,2.70
2023-04-27T02:27:38.205Z,2.50
2023-04-27T02:30:26.715Z,2.50
2023-04-27T02:33:13.078Z,2.47
2023-04-27T02:35:59.708Z,2.07
2023-04-27T02:38:46.006Z,2.90
2023-04-27T02:41:32.910Z,3.03
2023-04-27T02:44:19.286Z,2.50
2023-04-27T02:47:07.260Z,2.43
2023-04-27T02:49:54.251Z,3.33
2023-04-27T02:52:40.627Z,2.60
2023-04-27T02:55:27.674Z,3.20
2023-04-27T02:58:14.542Z,2.60
2023-04-27T03:01:01.558Z,3.17
2023-04-27T03:03:49.974Z,3.30
2023-04-27T03:06:36.592Z,2.90
2023-04-27T03:09:22.946Z,3.20
2023-04-27T03:12:09.419Z,3.17
2023-04-27T03:14:55.847Z,4.37
2023-04-27T03:17:42.286Z,3.57
2023-04-27T03:20:29.888Z,3.00
2023-04-27T03:23:16.390Z,3.50
2023-04-27T03:26:02.829Z,5.30
2023-04-27T03:28:48.985Z,4.10
2023-04-27T03:31:35.489Z,3.77
2023-04-27T03:34:23.513Z,3.40
2023-04-27T03:37:11.485Z,3.17
2023-04-27T03:39:57.831Z,3.70
2023-04-27T03:42:44.235Z,2.90
2023-04-27T03:45:30.601Z,2.97
2023-04-27T03:48:17.069Z,2.87
2023-04-27T03:51:03.709Z,3.13
2023-04-27T03:53:51.507Z,3.33
2023-04-27T03:56:38.126Z,3.30
2023-04-27T03:59:24.784Z,3.47
2023-04-27T04:02:11.799Z,4.47
2023-04-27T04:04:58.400Z,4.10
2023-04-27T04:07:44.802Z,3.33
2023-04-27T04:10:32.884Z,3.63
2023-04-27T04:13:19.320Z,3.30
2023-04-27T04:16:06.663Z,3.67
2023-04-27T04:18:53.300Z,3.50
2023-04-27T04:21:39.836Z,3.47
2023-04-27T04:24:26.442Z,3.90
2023-04-27T04:27:14.001Z,3.63
2023-04-27T04:30:00.906Z,3.93
2023-04-27T04:32:47.711Z,4.10
2023-04-27T04:35:34.141Z,4.20
2023-04-27T04:38:21.119Z,3.93
2023-04-27T04:41:07.573Z,4.30
2023-04-27T04:43:55.752Z,4.23
2023-04-27T04:46:42.187Z,4.03
2023-04-27T04:49:28.866Z,3.70
2023-04-27T04:52:16.130Z,4.03
2023-04-27T04:55:03.274Z,3.70
2023-04-27T04:57:49.837Z,3.90
2023-04-27T05:00:37.493Z,4.23
2023-04-27T05:03:23.944Z,10.10
2023-04-27T05:06:10.492Z,5.50
2023-04-27T05:08:58.357Z,5.50
2023-04-27T05:11:44.437Z,24.10
2023-04-27T05:14:31.104Z,12.30
2023-04-27T05:17:19.228Z,4.80
2023-04-27T05:20:06.435Z,5.50
2023-04-27T05:22:52.790Z,4.40
2023-04-27T05:25:41.880Z,5.00
2023-04-27T05:28:28.575Z,3.93
2023-04-27T05:31:14.975Z,4.13
2023-04-27T05:34:03.167Z,3.93
2023-04-27T05:36:49.593Z,7.37
2023-04-27T05:39:35.727Z,3.83
2023-04-27T05:42:22.181Z,3.93
2023-04-27T05:45:09.110Z,3.87
2023-04-27T05:47:55.748Z,5.87
2023-04-27T05:50:43.697Z,4.30
2023-04-27T05:53:30.457Z,6.30
2023-04-27T05:56:17.011Z,3.57
2023-04-27T05:59:03.585Z,3.63
2023-04-27T06:01:50.298Z,7.27
2023-04-27T06:04:37.365Z,4.57
2023-04-27T06:07:25.620Z,4.03
2023-04-27T06:10:12.383Z,3.73
2023-04-27T06:12:58.798Z,3.70
2023-04-27T06:15:45.411Z,3.70
2023-04-27T06:18:31.842Z,3.70
2023-04-27T06:21:18.046Z,4.40
2023-04-27T06:24:05.970Z,4.23
2023-04-27T06:26:52.823Z,4.23
2023-04-27T06:29:39.338Z,4.17
2023-04-27T06:32:26.247Z,4.10
2023-04-27T06:35:12.826Z,3.70
2023-04-27T06:37:59.483Z,23.23
2023-04-27T06:40:51.130Z,4.50
2023-04-27T06:43:37.765Z,4.30
2023-04-27T06:46:24.405Z,6.47
2023-04-27T06:49:11.093Z,5.03
2023-04-27T06:51:57.345Z,4.63
2023-04-27T06:54:43.747Z,9.47
2023-04-27T06:57:31.684Z,4.47
2023-04-27T07:00:18.463Z,5.57
2023-04-27T07:03:07.405Z,4.30
2023-04-27T07:05:54.105Z,5.97
2023-04-27T07:08:40.461Z,4.60
2023-04-27T07:11:27.038Z,4.07
2023-04-27T07:14:15.090Z,3.70
2023-04-27T07:17:01.560Z,4.00
2023-04-27T07:19:48.083Z,5.40
2023-04-27T07:22:34.470Z,3.93
2023-04-27T07:25:21.619Z,3.57
2023-04-27T07:28:09.001Z,11.70
2023-04-27T07:30:58.100Z,7.80
2023-04-27T07:33:47.466Z,5.27
2023-04-27T07:36:33.954Z,4.23
2023-04-27T07:39:20.860Z,3.87
2023-04-27T07:42:07.264Z,4.20
2023-04-27T07:44:54.346Z,3.73
2023-04-27T07:47:42.688Z,4.40
2023-04-27T07:50:30.275Z,4.33
2023-04-27T07:53:16.635Z,3.70
2023-04-27T07:56:03.162Z,4.67
2023-04-27T07:58:49.775Z,4.43
2023-04-27T08:01:36.454Z,3.80
2023-04-27T08:04:24.671Z,3.83
2023-04-27T08:07:11.896Z,4.20
2023-04-27T08:09:58.716Z,3.80
2023-04-27T08:12:45.100Z,5.33
2023-04-27T08:15:32.030Z,3.90
2023-04-27T08:18:19.441Z,3.90
2023-04-27T08:21:07.277Z,4.57
2023-04-27T08:23:53.602Z,4.93
2023-04-27T08:26:41.916Z,4.83
2023-04-27T08:29:29.276Z,5.63
2023-04-27T08:32:16.125Z,4.97
2023-04-27T08:35:02.615Z,5.00
2023-04-27T08:37:50.891Z,5.00
2023-04-27T08:40:37.302Z,5.23
2023-04-27T08:43:23.949Z,5.43
2023-04-27T08:46:10.425Z,5.27
2023-04-27T08:48:57.043Z,6.50
2023-04-27T08:51:43.725Z,6.40
2023-04-27T08:54:31.960Z,6.70
2023-04-27T08:57:18.305Z,5.27
2023-04-27T09:00:12.497Z,5.43
2023-04-27T09:02:59.130Z,6.17
2023-04-27T09:06:00.638Z,5.07
2023-04-27T09:08:50.915Z,4.93
2023-04-27T09:11:39.400Z,5.63
2023-04-27T09:14:25.765Z,5.73
2023-04-27T09:17:11.954Z,4.93
2023-04-27T09:20:08.825Z,5.07
2023-04-27T09:22:56.168Z,4.30
2023-04-27T09:25:42.940Z,5.07
2023-04-27T09:28:32.415Z,5.13
2023-04-27T09:31:19.274Z,5.60
2023-04-27T09:34:05.973Z,4.47
2023-04-27T09:36:52.632Z,5.53
2023-04-27T09:39:39.569Z,6.03
2023-04-27T09:42:26.086Z,4.60
2023-04-27T09:45:14.599Z,5.17
2023-04-27T09:48:02.079Z,5.33
2023-04-27T09:50:49.912Z,4.67
2023-04-27T09:53:38.384Z,6.30
2023-04-27T09:56:29.110Z,4.50
2023-04-27T09:59:30.045Z,4.50
2023-04-27T10:02:25.166Z,4.60
2023-04-27T10:05:21.734Z,8.93
2023-04-27T10:08:08.434Z,6.13
2023-04-27T10:10:54.869Z,4.67
2023-04-27T10:13:52.372Z,4.57
2023-04-27T10:16:45.994Z,7.87
2023-04-27T10:19:33.722Z,5.27
2023-04-27T10:22:19.895Z,5.10
2023-04-27T10:25:34.504Z,5.57
2023-04-27T10:28:21.456Z,5.50
2023-04-27T10:31:11.161Z,4.90
2023-04-27T10:34:08.122Z,5.27
2023-04-27T10:37:05.491Z,5.57
2023-04-27T10:39:53.550Z,4.90
2023-04-27T10:42:41.462Z,4.40
2023-04-27T10:45:31.167Z,4.27
2023-04-27T10:48:18.308Z,5.53
2023-04-27T10:51:05.074Z,5.20
2023-04-27T10:53:55.131Z,4.93
2023-04-27T10:56:42.286Z,4.80
2023-04-27T10:59:28.893Z,5.03
2023-04-27T11:02:15.516Z,4.77
2023-04-27T11:05:07.577Z,4.73
2023-04-27T11:08:05.482Z,5.53
2023-04-27T11:10:53.166Z,4.70
2023-04-27T11:13:39.239Z,4.20
2023-04-27T11:16:26.010Z,4.17
2023-04-27T11:19:13.062Z,4.70
2023-04-27T11:22:07.520Z,5.17
2023-04-27T11:24:54.064Z,4.70
2023-04-27T11:27:42.332Z,4.90
2023-04-27T11:30:28.672Z,5.70
2023-04-27T11:33:15.334Z,5.53
2023-04-27T11:36:01.815Z,5.37
2023-04-27T11:38:48.726Z,5.50
2023-04-27T11:41:35.874Z,5.57
2023-04-27T11:44:28.553Z,4.97
2023-04-27T11:47:19.225Z,5.17
2023-04-27T11:50:07.470Z,7.53
2023-04-27T11:52:54.385Z,5.23
2023-04-27T11:55:41.440Z,4.70
2023-04-27T11:58:44.373Z,5.13
2023-04-27T12:01:38.197Z,5.00
2023-04-27T12:04:25.601Z,6.40
2023-04-27T12:07:12.311Z,4.97
2023-04-27T12:13:29.094Z,5.80
2023-04-27T12:16:16.170Z,4.10
2023-04-27T12:19:35.629Z,4.73
2023-04-27T12:22:50.828Z,4.33
2023-04-27T12:25:37.729Z,4.07
2023-04-27T12:28:24.316Z,4.17
2023-04-27T12:31:14.729Z,4.53
2023-04-27T12:34:01.684Z,4.90
2023-04-27T12:36:48.189Z,5.07
2023-04-27T12:40:00.903Z,5.03
2023-04-27T12:42:47.209Z,4.50
2023-04-27T12:46:06.165Z,4.43
2023-04-27T12:48:52.860Z,3.63
2023-04-27T12:51:39.451Z,3.90
2023-04-27T12:54:25.890Z,3.93
2023-04-27T12:57:14.053Z,3.60
2023-04-27T13:00:01.800Z,3.90
2023-04-27T13:02:48.497Z,3.93
2023-04-27T13:05:35.711Z,3.80
2023-04-27T13:08:22.512Z,3.30
2023-04-27T13:11:08.905Z,4.63
2023-04-27T13:13:57.164Z,4.13
2023-04-27T13:16:46.505Z,3.60
2023-04-27T13:19:32.928Z,3.27
2023-04-27T13:22:21.004Z,3.67
2023-04-27T13:28:40.396Z,3.70
2023-04-27T13:32:15.278Z,3.20
2023-04-27T13:35:14.154Z,3.77
2023-04-27T13:38:01.157Z,3.47
2023-04-27T13:40:47.526Z,3.40
2023-04-27T13:43:43.730Z,3.00
2023-04-27T13:47:05.181Z,3.03
2023-04-27T13:49:51.875Z,3.93
2023-04-27T13:52:41.038Z,3.27
2023-04-27T13:55:27.610Z,3.43
2023-04-27T13:58:14.452Z,3.37
2023-04-27T14:01:01.345Z,3.60
2023-04-27T14:03:48.386Z,3.57
2023-04-27T14:07:08.022Z,3.83
2023-04-27T14:09:56.185Z,4.63
2023-04-27T14:12:42.874Z,3.40
2023-04-27T14:15:29.554Z,4.20
2023-04-27T14:18:31.737Z,5.43
2023-04-27T14:21:38.364Z,2.73
2023-04-27T14:25:08.373Z,2.93
2023-04-27T14:27:57.396Z,3.73
2023-04-27T14:30:44.059Z,2.10
2023-04-27T14:33:32.140Z,3.30
2023-04-27T14:39:08.698Z,3.10
2023-04-27T14:41:55.775Z,3.43
2023-04-27T14:44:43.534Z,5.73
2023-04-27T14:47:30.222Z,6.77
2023-04-27T14:50:16.816Z,5.17
2023-04-27T14:53:03.579Z,9.87
2023-04-27T14:56:26.663Z,6.30
2023-04-27T14:59:13.419Z,5.97
2023-04-27T15:02:01.494Z,5.20
2023-04-27T15:04:48.116Z,7.70
2023-04-27T15:07:34.736Z,4.50
2023-04-27T15:10:21.695Z,5.60
2023-04-27T15:13:08.118Z,6.23
2023-04-27T15:15:55.443Z,6.07
2023-04-27T15:18:43.227Z,4.27
2023-04-27T15:21:29.808Z,5.47
2023-04-27T15:24:16.525Z,5.40
2023-04-27T15:27:03.367Z,7.93
2023-04-27T15:29:49.751Z,11.03
2023-04-27T15:32:36.652Z,7.90
2023-04-27T15:35:24.294Z,12.33
2023-04-27T15:38:12.285Z,11.07
2023-04-27T15:40:59.050Z,10.63
2023-04-27T15:43:47.773Z,5.93
2023-04-27T15:46:34.161Z,8.13
2023-04-27T15:49:20.949Z,7.90
2023-04-27T15:52:08.853Z,7.80
2023-04-27T15:54:56.260Z,9.97
2023-04-27T15:57:43.120Z,9.80
2023-04-27T16:00:29.761Z,9.60
2023-04-27T16:03:16.394Z,11.90
2023-04-27T16:06:03.433Z,8.00
2023-04-27T16:08:51.265Z,8.43
2023-04-27T16:11:37.656Z,6.73
2023-04-27T16:14:24.241Z,7.40
2023-04-27T16:17:10.857Z,5.87
2023-04-27T16:19:57.262Z,5.27
2023-04-27T16:22:43.738Z,6.50
2023-04-27T16:25:31.492Z,6.63
2023-04-27T16:28:18.131Z,6.37
2023-04-27T16:31:04.445Z,6.50
2023-04-27T16:33:51.904Z,5.73
2023-04-27T16:36:38.138Z,4.90
2023-04-27T16:39:24.199Z,4.83
2023-04-27T16:42:13.422Z,4.87
2023-04-27T16:45:02.249Z,7.67
2023-04-27T16:47:48.927Z,4.57
2023-04-27T16:50:35.289Z,4.27
2023-04-27T16:53:22.212Z,5.20
2023-04-27T16:56:10.137Z,5.50
2023-04-27T16:59:59.840Z,4.40
2023-04-27T17:02:47.897Z,4.67
2023-04-27T17:05:34.370Z,4.43
2023-04-27T17:08:20.969Z,4.47
2023-04-27T17:11:08.957Z,4.80
2023-04-27T17:13:55.546Z,6.50
2023-04-27T17:16:42.316Z,26.57
2023-04-27T17:19:30.056Z,12.80
2023-04-27T17:22:16.643Z,15.60
2023-04-27T17:25:03.151Z,10.67
2023-04-27T17:27:49.579Z,7.13
2023-04-27T17:30:36.270Z,6.00
2023-04-27T17:33:22.965Z,4.43
2023-04-27T17:36:10.865Z,4.60
2023-04-27T17:38:57.692Z,6.57
2023-04-27T17:41:43.897Z,11.03
2023-04-27T17:44:30.305Z,6.37
2023-04-27T17:47:18.694Z,6.30
2023-04-27T17:50:05.724Z,9.03
2023-04-27T17:52:54.116Z,7.80
2023-04-27T17:55:40.722Z,5.03
2023-04-27T17:58:28.133Z,4.50
2023-04-27T18:01:14.327Z,4.70
2023-04-27T18:04:04.004Z,5.73
2023-04-27T18:06:51.597Z,5.00
2023-04-27T18:09:39.659Z,5.03
2023-04-27T18:12:26.484Z,5.50
2023-04-27T18:15:13.084Z,5.60
2023-04-27T18:17:59.574Z,8.37
2023-04-27T18:20:47.723Z,12.23
2023-04-27T18:23:35.493Z,39.07
2023-04-27T18:26:23.203Z,31.23
2023-04-27T18:29:09.910Z,31.57
2023-04-27T18:31:57.876Z,18.40
2023-04-27T18:34:44.710Z,9.77
2023-04-27T18:37:31.416Z,8.90
2023-04-27T18:40:21.329Z,7.03
2023-04-27T18:43:09.560Z,7.63
2023-04-27T18:45:56.508Z,8.43
2023-04-27T18:48:43.148Z,8.37
2023-04-27T18:51:30.050Z,8.70
2023-04-27T18:54:16.329Z,8.57
2023-04-27T18:57:04.394Z,8.03
2023-04-27T18:59:51.878Z,9.77
2023-04-27T19:02:38.334Z,8.47
2023-04-27T19:05:24.606Z,8.67
2023-04-27T19:08:11.328Z,10.50
2023-04-27T19:10:58.567Z,11.83
2023-04-27T19:13:46.247Z,27.83
2023-04-27T19:16:35.740Z,14.70
2023-04-27T19:19:22.331Z,10.27
2023-04-27T19:22:08.658Z,11.70
2023-04-27T19:24:55.486Z,9.87
2023-04-27T19:27:42.118Z,10.00
2023-04-27T19:30:28.796Z,10.33
2023-04-27T19:33:19.627Z,9.63
2023-04-27T19:36:06.969Z,10.23
2023-04-27T19:38:53.574Z,8.93
2023-04-27T19:41:40.148Z,9.50
2023-04-27T19:44:26.975Z,9.93
2023-04-27T19:47:13.331Z,9.77
2023-04-27T19:50:01.103Z,9.07
2023-04-27T19:52:47.683Z,8.93
2023-04-27T19:55:34.175Z,8.13
2023-04-27T19:58:20.816Z,7.67
2023-04-27T20:01:07.534Z,8.67
2023-04-27T20:03:54.145Z,8.23
2023-04-27T20:06:43.373Z,16.33
2023-04-27T20:09:29.743Z,12.03
2023-04-27T20:16:21.636Z,11.47
2023-04-27T20:19:08.207Z,9.30
2023-04-27T20:21:56.024Z,8.47
2023-04-27T20:24:42.631Z,8.57
2023-04-27T20:27:29.076Z,9.70
2023-04-27T20:30:16.065Z,8.73
2023-04-27T20:33:03.870Z,14.57
2023-04-27T20:35:55.537Z,11.60
2023-04-27T20:38:45.023Z,10.30
2023-04-27T20:41:33.667Z,11.70
2023-04-27T20:44:20.850Z,10.37
2023-04-27T20:47:07.165Z,11.07
2023-04-27T20:49:53.885Z,9.10
2023-04-27T20:52:40.541Z,9.03
2023-04-27T20:55:28.592Z,9.30
2023-04-27T20:58:15.268Z,10.27
2023-04-27T21:01:01.682Z,11.43
2023-04-27T21:03:48.224Z,9.33
2023-04-27T21:06:34.673Z,8.50
2023-04-27T21:09:21.090Z,8.53
2023-04-27T21:12:09.042Z,8.13
2023-04-27T21:14:54.922Z,6.27
2023-04-27T21:17:41.795Z,7.83
2023-04-27T21:20:28.484Z,6.97
2023-04-27T21:23:15.498Z,5.90
2023-04-27T21:26:01.951Z,5.73
2023-04-27T21:28:49.842Z,5.73
2023-04-27T21:31:36.407Z,5.10
2023-04-27T21:34:22.719Z,4.97
2023-04-27T21:37:09.420Z,4.87
2023-04-27T21:39:55.821Z,4.70
2023-04-27T21:42:42.700Z,4.20
2023-04-27T21:45:30.544Z,4.17
2023-04-27T21:48:16.904Z,4.20
2023-04-27T21:51:03.590Z,3.77
2023-04-27T21:53:49.679Z,3.97
2023-04-27T21:56:37.712Z,4.67
2023-04-27T21:59:24.013Z,4.80
2023-04-27T22:02:12.346Z,4.40
2023-04-27T22:04:59.614Z,4.00
2023-04-27T22:07:47.660Z,3.87
2023-04-27T22:10:34.038Z,4.20
2023-04-27T22:13:20.423Z,4.37
2023-04-27T22:16:07.000Z,4.83
2023-04-27T22:18:54.507Z,5.13
2023-04-27T22:21:40.668Z,5.77
2023-04-27T22:24:26.995Z,4.07
2023-04-27T22:27:13.852Z,4.63
2023-04-27T22:30:00.773Z,4.10
2023-04-27T22:32:47.344Z,4.37
2023-04-27T22:35:36.422Z,4.33
2023-04-27T22:38:22.933Z,4.70
2023-04-27T22:41:09.240Z,5.27
2023-04-27T22:43:55.619Z,5.50
2023-04-27T22:46:43.834Z,5.87
2023-04-27T22:49:30.386Z,6.77
2023-04-27T22:52:18.165Z,6.10
2023-04-27T22:55:04.899Z,6.47
2023-04-27T22:57:53.821Z,6.83
2023-04-27T23:00:40.541Z,5.83
2023-04-27T23:03:27.054Z,6.77
2023-04-27T23:06:14.309Z,5.70
2023-04-27T23:09:03.171Z,5.80
2023-04-27T23:11:50.961Z,6.37
2023-04-27T23:14:37.459Z,6.60
2023-04-27T23:17:30.800Z,7.93
2023-04-27T23:20:28.201Z,8.47
2023-04-27T23:23:15.605Z,8.00
2023-04-27T23:26:03.632Z,7.67
2023-04-27T23:28:49.957Z,7.43
2023-04-27T23:31:36.389Z,6.80
2023-04-27T23:34:23.159Z,6.97
2023-04-27T23:37:09.257Z,6.60
2023-04-27T23:39:56.062Z,6.23
2023-04-27T23:42:44.044Z,6.60
2023-04-27T23:45:30.712Z,5.67
2023-04-27T23:48:16.993Z,5.40
2023-04-27T23:51:04.276Z,5.37
2023-04-27T23:53:50.739Z,4.40
2023-04-27T23:56:37.752Z,4.80
2023-04-27T23:59:25.570Z,4.87
